Chestertown, New York
Current Conditions -  °F | °C
As of 4:53 AM on Sunday 23 Nov 2014 (Local Time) from KGFL Reporting Station
Light Rain Light Rain  
Wind Chill: 29°   Ceiling: 2200
Heat Index: 35°   Visibility: 2.5mi
Dew Point: 32°   Wind: 7mph
Humidity: 89%   Direction: 190°S
Pressure: 30.06"   Gusts: NA
Location:  43.65°N, 73.8°W
Report Text: KGFL 230953Z AUTO 19006KT 2 1/2SM -RA BR OVC022 02/00 A3006 RMK AO2 RAB37UPB44E53 SLP185 P0000 T00170000
Loading
Personal Weather Stations






























Interactive Weather Map New forecast layout! Learn more

10-Day Weather Forecast

Advertisements
Track Severe Weather on mobile